Flight Briefing for CPX119

Departure Arrival
Los Angeles International Airport (KLAX)
Click to view FAA NOTAMS
Ted Stevens Anchorage International Airport (PANC)
Click to view FAA NOTAMS
Departure Time Arrival Time
N/A N/A
Aircraft Distance
B747-400BCF 2089nm
Departure METAR Arrival METAR
KLAX 232202Z 24008G16KT 10SM FEW019 OVC030 17/11 A3000 RMK AO2 T01670106 PANC 232153Z 15009KT 10SM FEW045 BKN080 OVC150 13/06 A3003 RMK AO2 SLP168 T01280061 $
Suggested Route
SUMMR1 SCTRR PYE J143 ENI FOT BOXER B453 MDO WITTI4


View recent IFR Routes data
Notes



Charts and Procedures

Charts for KLAX
No chart available
Charts for PANC
No chart available

Windy.com Weather Map